createdAt,value
2022-10-14T00:01:10.640Z,4.07
2022-10-14T00:03:39.827Z,3.67
2022-10-14T00:06:09.398Z,4.17
2022-10-14T00:08:37.443Z,4.17
2022-10-14T00:11:06.941Z,4.03
2022-10-14T00:13:35.253Z,4.10
2022-10-14T00:16:05.472Z,4.90
2022-10-14T00:18:33.835Z,4.40
2022-10-14T00:21:03.110Z,4.30
2022-10-14T00:23:31.117Z,4.07
2022-10-14T00:25:59.072Z,4.03
2022-10-14T00:28:27.017Z,4.30
2022-10-14T00:30:56.234Z,4.60
2022-10-14T00:33:25.855Z,4.70
2022-10-14T00:35:57.961Z,3.87
2022-10-14T00:38:26.449Z,4.03
2022-10-14T00:40:54.520Z,4.30
2022-10-14T00:43:24.167Z,4.27
2022-10-14T00:45:52.022Z,4.37
2022-10-14T00:48:21.908Z,4.60
2022-10-14T00:50:56.097Z,4.63
2022-10-14T00:53:24.061Z,4.30
2022-10-14T00:55:51.985Z,4.63
2022-10-14T00:58:19.949Z,4.20
2022-10-14T01:00:47.899Z,4.43
2022-10-14T01:03:20.878Z,4.80
2022-10-14T01:05:55.482Z,4.23
2022-10-14T01:08:28.552Z,4.43
2022-10-14T01:11:06.622Z,4.63
2022-10-14T01:13:36.144Z,4.60
2022-10-14T01:16:15.684Z,4.73
2022-10-14T01:19:01.480Z,4.77
2022-10-14T01:21:37.909Z,4.63
2022-10-14T01:24:28.176Z,5.00
2022-10-14T01:27:23.867Z,5.77
2022-10-14T01:30:08.855Z,5.10
2022-10-14T01:32:42.823Z,5.43
2022-10-14T01:35:19.454Z,6.33
2022-10-14T01:37:53.516Z,6.10
2022-10-14T01:40:27.592Z,5.00
2022-10-14T01:42:58.589Z,5.23
2022-10-14T01:45:31.719Z,5.70
2022-10-14T01:48:01.009Z,5.40
2022-10-14T01:50:31.508Z,5.57
2022-10-14T01:53:03.586Z,4.97
2022-10-14T01:55:37.349Z,4.90
2022-10-14T01:58:07.055Z,5.37
2022-10-14T02:00:36.417Z,5.53
2022-10-14T02:03:04.430Z,5.40
2022-10-14T02:05:36.187Z,5.47
2022-10-14T02:08:11.848Z,5.23
2022-10-14T02:10:52.856Z,5.43
2022-10-14T02:13:38.458Z,5.10
2022-10-14T02:16:17.625Z,4.87
2022-10-14T02:18:51.031Z,5.10
2022-10-14T02:21:25.472Z,5.30
2022-10-14T02:24:08.583Z,5.87
2022-10-14T02:26:38.006Z,4.90
2022-10-14T02:29:07.179Z,4.37
2022-10-14T02:31:38.754Z,4.43
2022-10-14T02:34:12.445Z,4.93
2022-10-14T02:36:42.160Z,4.30
2022-10-14T02:39:14.413Z,4.00
2022-10-14T02:41:42.503Z,4.27
2022-10-14T02:44:10.544Z,4.93
2022-10-14T02:46:41.083Z,4.43
2022-10-14T02:49:08.946Z,4.27
2022-10-14T02:51:36.824Z,4.33
2022-10-14T02:54:04.956Z,4.67
2022-10-14T02:56:32.815Z,4.77
2022-10-14T02:59:00.780Z,4.63
2022-10-14T03:01:29.465Z,4.40
2022-10-14T03:04:00.825Z,4.40
2022-10-14T03:06:28.695Z,4.50
2022-10-14T03:08:56.586Z,5.00
2022-10-14T03:11:24.470Z,4.37
2022-10-14T03:13:52.341Z,4.70
2022-10-14T03:16:20.193Z,4.80
2022-10-14T03:18:48.064Z,4.37
2022-10-14T03:21:17.279Z,4.27
2022-10-14T03:23:45.118Z,4.13
2022-10-14T03:26:14.129Z,4.70
2022-10-14T03:28:42.300Z,4.33
2022-10-14T03:31:10.233Z,4.77
2022-10-14T03:33:38.200Z,4.17
2022-10-14T03:36:06.392Z,4.37
2022-10-14T03:38:35.676Z,4.40
2022-10-14T03:41:03.566Z,4.23
2022-10-14T03:43:31.920Z,4.30
2022-10-14T03:45:59.879Z,4.57
2022-10-14T03:48:28.017Z,3.90
2022-10-14T03:50:55.893Z,4.20
2022-10-14T03:53:23.836Z,3.90
2022-10-14T03:55:53.091Z,4.10
2022-10-14T03:58:20.960Z,3.80
2022-10-14T04:00:48.876Z,4.27
2022-10-14T04:03:16.725Z,3.93
2022-10-14T04:05:44.835Z,4.07
2022-10-14T04:08:12.747Z,3.63
2022-10-14T04:10:40.669Z,3.87
2022-10-14T04:13:10.386Z,4.17
2022-10-14T04:15:38.469Z,3.70
2022-10-14T04:18:06.407Z,3.50
2022-10-14T04:20:34.244Z,3.70
2022-10-14T04:23:02.149Z,3.50
2022-10-14T04:25:30.027Z,3.53
2022-10-14T04:27:57.932Z,3.60
2022-10-14T04:30:27.176Z,3.03
2022-10-14T04:32:55.012Z,3.20
2022-10-14T04:35:23.050Z,3.67
2022-10-14T04:37:50.916Z,2.73
2022-10-14T04:40:20.435Z,3.23
2022-10-14T04:42:48.344Z,3.20
2022-10-14T04:45:18.695Z,2.60
2022-10-14T04:47:48.865Z,2.53
2022-10-14T04:50:17.076Z,2.90
2022-10-14T04:52:45.462Z,2.47
2022-10-14T04:55:13.578Z,2.63
2022-10-14T04:57:43.749Z,2.40
2022-10-14T05:00:13.150Z,2.50
2022-10-14T05:02:41.059Z,2.73
2022-10-14T05:05:10.814Z,2.53
2022-10-14T05:07:39.094Z,2.70
2022-10-14T05:10:08.110Z,2.50
2022-10-14T05:12:36.205Z,2.23
2022-10-14T05:15:05.287Z,2.60
2022-10-14T05:17:33.528Z,2.17
2022-10-14T05:20:01.491Z,2.50
2022-10-14T05:22:30.829Z,2.60
2022-10-14T05:24:58.762Z,2.53
2022-10-14T05:27:26.736Z,2.60
2022-10-14T05:29:54.653Z,2.60
2022-10-14T05:32:22.978Z,3.30
2022-10-14T05:34:51.185Z,2.77
2022-10-14T05:37:19.098Z,3.13
2022-10-14T05:39:48.341Z,3.37
2022-10-14T05:42:16.292Z,3.10
2022-10-14T05:44:44.193Z,3.63
2022-10-14T05:47:12.159Z,3.30
2022-10-14T05:49:40.077Z,3.43
2022-10-14T05:52:07.980Z,3.63
2022-10-14T05:54:35.903Z,3.20
2022-10-14T05:57:05.416Z,3.13
2022-10-14T05:59:34.732Z,3.23
2022-10-14T06:02:03.105Z,3.10
2022-10-14T06:04:31.085Z,3.67
2022-10-14T06:07:00.335Z,3.80
2022-10-14T06:09:28.314Z,4.07
2022-10-14T06:11:56.224Z,3.50
2022-10-14T06:14:25.700Z,3.73
2022-10-14T06:16:53.570Z,4.23
2022-10-14T06:19:21.462Z,3.83
2022-10-14T06:21:49.439Z,4.03
2022-10-14T06:24:17.619Z,4.23
2022-10-14T06:26:45.528Z,3.73
2022-10-14T06:29:13.860Z,3.83
2022-10-14T06:31:43.276Z,3.67
2022-10-14T06:34:11.332Z,3.90
2022-10-14T06:36:39.312Z,4.13
2022-10-14T06:39:07.442Z,4.70
2022-10-14T06:41:36.172Z,4.20
2022-10-14T06:44:04.023Z,4.27
2022-10-14T06:46:31.917Z,3.90
2022-10-14T06:49:01.197Z,3.47
2022-10-14T06:51:29.089Z,4.17
2022-10-14T06:53:56.992Z,3.73
2022-10-14T06:56:24.900Z,4.33
2022-10-14T06:58:54.847Z,3.80
2022-10-14T07:01:23.527Z,3.90
2022-10-14T07:03:54.293Z,3.93
2022-10-14T07:06:25.979Z,3.67
2022-10-14T07:08:54.092Z,4.20
2022-10-14T07:11:22.204Z,3.83
2022-10-14T07:13:50.113Z,4.30
2022-10-14T07:16:18.052Z,4.43
2022-10-14T07:18:45.975Z,3.90
2022-10-14T07:21:13.947Z,4.07
2022-10-14T07:23:43.222Z,4.47
2022-10-14T07:26:11.165Z,4.67
2022-10-14T07:28:39.166Z,4.23
2022-10-14T07:31:08.908Z,3.83
2022-10-14T07:36:07.447Z,4.77
2022-10-14T07:38:35.412Z,4.17
2022-10-14T07:41:06.742Z,4.60
2022-10-14T07:43:38.654Z,4.40
2022-10-14T07:46:08.307Z,4.63
2022-10-14T07:48:52.576Z,4.33
2022-10-14T07:51:24.449Z,4.10
2022-10-14T07:53:52.976Z,4.60
2022-10-14T07:56:23.431Z,4.20
2022-10-14T07:58:52.504Z,5.50
2022-10-14T08:01:20.771Z,5.63
2022-10-14T08:03:49.791Z,4.93
2022-10-14T08:06:18.071Z,5.57
2022-10-14T08:08:46.372Z,5.27
2022-10-14T08:11:16.805Z,5.10
2022-10-14T08:13:47.046Z,4.53
2022-10-14T08:16:16.907Z,4.90
2022-10-14T08:18:45.484Z,5.30
2022-10-14T08:21:14.019Z,5.50
2022-10-14T08:23:41.962Z,4.97
2022-10-14T08:26:20.793Z,4.40
2022-10-14T08:28:50.370Z,5.17
2022-10-14T08:31:18.745Z,4.63
2022-10-14T08:33:46.748Z,4.97
2022-10-14T08:36:15.532Z,4.23
2022-10-14T08:38:43.467Z,4.47
2022-10-14T08:41:26.010Z,4.50
2022-10-14T08:44:10.448Z,4.30
2022-10-14T08:46:41.962Z,4.63
2022-10-14T08:49:18.357Z,3.90
2022-10-14T08:51:50.333Z,5.00
2022-10-14T08:54:29.867Z,4.50
2022-10-14T08:57:01.133Z,5.00
2022-10-14T08:59:31.204Z,4.70
2022-10-14T09:02:04.635Z,4.10
2022-10-14T09:04:36.401Z,4.47
2022-10-14T09:07:05.365Z,4.43
2022-10-14T09:09:41.079Z,4.73
2022-10-14T09:12:15.245Z,5.30
2022-10-14T09:14:48.512Z,5.03
2022-10-14T09:17:21.186Z,5.10
2022-10-14T09:19:52.532Z,4.63
2022-10-14T09:22:21.767Z,4.70
2022-10-14T09:24:49.863Z,4.83
2022-10-14T09:27:21.926Z,5.40
2022-10-14T09:29:55.268Z,4.60
2022-10-14T09:32:29.473Z,4.70
2022-10-14T09:34:59.090Z,3.90
2022-10-14T09:37:28.881Z,4.50
2022-10-14T09:40:00.296Z,4.70
2022-10-14T09:42:37.520Z,4.53
2022-10-14T09:45:11.233Z,4.50
2022-10-14T09:47:50.026Z,4.20
2022-10-14T09:50:32.324Z,4.53
2022-10-14T09:53:03.531Z,4.60
2022-10-14T09:55:32.640Z,4.33
2022-10-14T09:58:07.669Z,4.50
2022-10-14T10:00:39.243Z,5.30
2022-10-14T10:03:08.312Z,5.03
2022-10-14T10:05:37.725Z,5.17
2022-10-14T10:08:17.031Z,4.50
2022-10-14T10:11:03.513Z,4.70
2022-10-14T10:13:39.470Z,4.40
2022-10-14T10:16:19.280Z,4.80
2022-10-14T10:18:47.165Z,4.33
2022-10-14T10:21:18.316Z,5.07
2022-10-14T10:23:53.032Z,5.87
2022-10-14T10:26:25.938Z,4.80
2022-10-14T10:28:57.439Z,5.00
2022-10-14T10:31:57.810Z,5.63
2022-10-14T10:34:47.699Z,5.63
2022-10-14T10:37:28.092Z,5.27
2022-10-14T10:40:20.928Z,4.97
2022-10-14T10:43:11.448Z,5.47
2022-10-14T10:45:51.427Z,5.37
2022-10-14T10:48:26.581Z,6.37
2022-10-14T10:51:00.637Z,5.63
2022-10-14T10:53:42.546Z,6.50
2022-10-14T10:56:18.350Z,6.07
2022-10-14T10:59:06.554Z,5.80
2022-10-14T11:01:44.551Z,6.87
2022-10-14T11:04:27.175Z,7.10
2022-10-14T11:07:25.377Z,6.20
2022-10-14T11:10:21.645Z,7.50
2022-10-14T11:12:59.634Z,6.50
2022-10-14T11:15:40.506Z,7.43
2022-10-14T11:18:15.643Z,7.47
2022-10-14T11:21:01.983Z,7.07
2022-10-14T11:23:39.342Z,7.60
2022-10-14T11:26:26.982Z,6.83
2022-10-14T11:29:02.409Z,5.87
2022-10-14T11:31:39.051Z,7.17
2022-10-14T11:34:25.343Z,6.57
2022-10-14T11:37:08.056Z,7.13
2022-10-14T11:39:43.144Z,6.93
2022-10-14T11:42:26.065Z,6.57
2022-10-14T11:45:02.678Z,6.40
2022-10-14T11:47:35.261Z,6.97
2022-10-14T11:50:11.935Z,6.40
2022-10-14T11:52:46.681Z,6.83
2022-10-14T11:55:19.016Z,6.17
2022-10-14T11:57:50.373Z,6.27
2022-10-14T12:01:11.693Z,6.40
2022-10-14T12:03:50.550Z,5.70
2022-10-14T12:06:20.855Z,6.60
2022-10-14T12:08:55.232Z,6.73
2022-10-14T12:11:29.775Z,6.63
2022-10-14T12:14:05.669Z,6.00
2022-10-14T12:16:34.203Z,6.03
2022-10-14T12:19:02.585Z,6.40
2022-10-14T12:21:36.664Z,7.10
2022-10-14T12:24:10.249Z,6.13
2022-10-14T12:26:49.674Z,6.70
2022-10-14T12:29:21.512Z,6.33
2022-10-14T12:31:51.728Z,6.60
2022-10-14T12:34:34.783Z,5.77
2022-10-14T12:37:43.098Z,6.80
2022-10-14T12:40:31.790Z,6.07
2022-10-14T12:43:19.086Z,6.20
2022-10-14T12:46:04.308Z,6.20
2022-10-14T12:48:34.906Z,6.10
2022-10-14T12:51:13.189Z,5.50
2022-10-14T12:53:49.240Z,5.33
2022-10-14T12:56:31.553Z,5.10
2022-10-14T12:59:02.338Z,5.47
2022-10-14T13:01:35.236Z,5.60
2022-10-14T13:04:08.173Z,5.23
2022-10-14T13:06:40.649Z,5.63
2022-10-14T13:09:33.275Z,5.70
2022-10-14T13:12:43.929Z,4.87
2022-10-14T13:15:37.872Z,4.93
2022-10-14T13:18:43.430Z,4.87
2022-10-14T13:21:21.449Z,4.63
2022-10-14T13:23:52.089Z,4.70
2022-10-14T13:26:29.494Z,4.60
2022-10-14T13:29:12.383Z,4.97
2022-10-14T13:31:49.307Z,4.27
2022-10-14T13:34:33.711Z,4.47
2022-10-14T13:37:15.370Z,4.67
2022-10-14T13:39:43.428Z,4.67
2022-10-14T13:42:15.051Z,4.17
2022-10-14T13:44:43.070Z,4.37
2022-10-14T13:47:14.779Z,4.10
2022-10-14T13:49:44.244Z,4.57
2022-10-14T13:52:22.324Z,4.67
2022-10-14T13:54:52.626Z,4.17
2022-10-14T13:57:53.713Z,4.37
2022-10-14T14:00:45.857Z,4.40
2022-10-14T14:03:22.619Z,4.27
2022-10-14T14:05:51.321Z,4.57
2022-10-14T14:08:41.978Z,4.30
2022-10-14T14:11:16.773Z,3.97
2022-10-14T14:13:55.831Z,4.03
2022-10-14T14:16:28.646Z,4.10
2022-10-14T14:19:13.561Z,3.90
2022-10-14T14:21:41.539Z,3.93
2022-10-14T14:24:21.597Z,5.07
2022-10-14T14:26:49.764Z,4.87
2022-10-14T14:29:26.785Z,5.10
2022-10-14T14:32:06.134Z,4.30
2022-10-14T14:34:37.881Z,4.33
2022-10-14T14:39:59.194Z,5.40
2022-10-14T14:42:29.998Z,4.03
2022-10-14T14:45:04.638Z,4.37
2022-10-14T14:47:33.156Z,3.87
2022-10-14T14:50:28.931Z,4.60
2022-10-14T14:52:53.142Z,5.60
2022-10-14T14:55:44.552Z,5.57
2022-10-14T14:58:26.740Z,4.30
2022-10-14T15:00:55.332Z,4.67
2022-10-14T15:03:26.260Z,4.37
2022-10-14T15:05:59.421Z,3.60
2022-10-14T15:08:30.328Z,5.57
2022-10-14T15:11:00.067Z,4.73
2022-10-14T15:13:43.327Z,4.83
2022-10-14T15:16:11.443Z,4.33
2022-10-14T15:18:42.538Z,4.10
2022-10-14T15:21:20.075Z,3.93
2022-10-14T15:24:03.093Z,3.70
2022-10-14T15:26:34.463Z,3.87
2022-10-14T15:29:17.843Z,3.63
2022-10-14T15:31:47.660Z,4.70
2022-10-14T15:34:23.106Z,3.37
2022-10-14T15:36:54.085Z,3.90
2022-10-14T15:39:22.926Z,3.93
2022-10-14T15:41:50.941Z,4.07
2022-10-14T15:44:18.906Z,3.57
2022-10-14T15:47:05.153Z,3.33
2022-10-14T15:49:37.428Z,3.30
2022-10-14T15:52:07.028Z,2.93
2022-10-14T15:54:35.025Z,3.17
2022-10-14T15:57:03.111Z,3.10
2022-10-14T15:59:31.032Z,2.83
2022-10-14T16:01:59.568Z,3.40
2022-10-14T16:04:27.980Z,3.13
2022-10-14T16:06:57.538Z,3.33
2022-10-14T16:09:27.682Z,3.03
2022-10-14T16:11:58.077Z,3.10
2022-10-14T16:14:27.014Z,3.80
2022-10-14T16:16:55.349Z,3.50
2022-10-14T16:19:23.581Z,2.70
2022-10-14T16:21:51.492Z,2.20
2022-10-14T16:24:21.284Z,2.00
2022-10-14T16:26:50.846Z,1.70
2022-10-14T16:29:19.446Z,1.97
2022-10-14T16:31:49.634Z,2.10
2022-10-14T16:34:17.941Z,2.40
2022-10-14T16:36:46.208Z,2.10
2022-10-14T16:39:14.636Z,2.30
2022-10-14T16:41:42.675Z,2.00
2022-10-14T16:44:24.436Z,2.37
2022-10-14T16:47:11.159Z,2.40
2022-10-14T16:49:39.650Z,2.20
2022-10-14T16:52:07.686Z,2.27
2022-10-14T16:54:35.850Z,2.93
2022-10-14T16:57:03.897Z,2.53
2022-10-14T16:59:33.580Z,2.50
2022-10-14T17:02:01.921Z,2.80
2022-10-14T17:04:29.888Z,2.53
2022-10-14T17:06:57.814Z,2.80
2022-10-14T17:09:25.959Z,2.57
2022-10-14T17:11:54.681Z,2.60
2022-10-14T17:14:24.214Z,2.90
2022-10-14T17:16:53.595Z,3.30
2022-10-14T17:19:21.688Z,3.53
2022-10-14T17:21:49.613Z,3.00
2022-10-14T17:24:17.693Z,3.10
2022-10-14T17:26:45.921Z,3.03
2022-10-14T17:29:13.911Z,3.53
2022-10-14T17:31:41.800Z,3.30
2022-10-14T17:34:11.493Z,3.37
2022-10-14T17:36:40.023Z,2.90
2022-10-14T17:39:16.309Z,2.50
2022-10-14T17:41:49.265Z,2.33
2022-10-14T17:44:17.197Z,2.90
2022-10-14T17:46:45.356Z,2.23
2022-10-14T17:49:15.892Z,3.10
2022-10-14T17:51:44.814Z,3.77
2022-10-14T17:54:13.481Z,3.20
2022-10-14T17:56:43.017Z,2.83
2022-10-14T17:59:14.136Z,2.50
2022-10-14T18:04:32.510Z,3.03
2022-10-14T18:07:00.808Z,2.50
2022-10-14T18:09:28.904Z,3.30
2022-10-14T18:12:13.176Z,2.90
2022-10-14T18:14:41.626Z,2.67
2022-10-14T18:17:12.147Z,2.63
2022-10-14T18:19:42.140Z,2.87
2022-10-14T18:22:11.582Z,2.43
2022-10-14T18:24:39.662Z,2.63
2022-10-14T18:27:07.804Z,2.27
2022-10-14T18:29:35.820Z,2.70
2022-10-14T18:32:03.790Z,2.17
2022-10-14T18:34:31.746Z,1.83
2022-10-14T18:37:01.017Z,2.20
2022-10-14T18:39:28.934Z,2.20
2022-10-14T18:41:56.852Z,1.73
2022-10-14T18:44:24.747Z,2.37
2022-10-14T18:46:52.917Z,2.13
2022-10-14T18:49:20.814Z,2.70
2022-10-14T18:51:48.706Z,2.80
2022-10-14T18:54:20.534Z,2.70
2022-10-14T18:56:48.984Z,2.80
2022-10-14T18:59:18.755Z,2.90
2022-10-14T19:01:47.660Z,2.67
2022-10-14T19:04:16.800Z,2.67
2022-10-14T19:06:48.833Z,2.50
2022-10-14T19:09:20.855Z,2.80
2022-10-14T19:11:51.546Z,2.27
2022-10-14T19:14:19.463Z,2.40
2022-10-14T19:16:49.504Z,2.23
2022-10-14T19:19:19.512Z,2.20
2022-10-14T19:21:49.840Z,2.30
2022-10-14T19:24:19.094Z,2.13
2022-10-14T19:26:47.917Z,2.37
2022-10-14T19:29:16.854Z,2.47
2022-10-14T19:31:44.921Z,2.40
2022-10-14T19:34:14.304Z,2.23
2022-10-14T19:36:42.966Z,2.00
2022-10-14T19:39:13.993Z,2.00
2022-10-14T19:41:44.848Z,2.30
2022-10-14T19:44:13.785Z,2.17
2022-10-14T19:46:42.303Z,2.40
2022-10-14T19:49:12.645Z,2.07
2022-10-14T19:51:40.820Z,2.03
2022-10-14T19:54:10.612Z,2.30
2022-10-14T19:56:39.812Z,2.30
2022-10-14T19:59:09.608Z,2.20
2022-10-14T20:01:37.632Z,1.83
2022-10-14T20:04:06.894Z,2.40
2022-10-14T20:06:37.881Z,2.20
2022-10-14T20:09:06.930Z,2.43
2022-10-14T20:11:35.863Z,2.47
2022-10-14T20:14:03.891Z,2.43
2022-10-14T20:16:33.239Z,2.33
2022-10-14T20:19:01.422Z,2.50
2022-10-14T20:21:30.458Z,2.70
2022-10-14T20:23:59.576Z,2.30
2022-10-14T20:26:27.577Z,2.60
2022-10-14T20:28:55.886Z,2.70
2022-10-14T20:31:25.406Z,2.67
2022-10-14T20:33:56.318Z,2.90
2022-10-14T20:36:24.672Z,2.70
2022-10-14T20:38:52.747Z,2.67
2022-10-14T20:41:22.863Z,3.20
2022-10-14T20:43:51.464Z,3.30
2022-10-14T20:46:20.310Z,2.53
2022-10-14T20:48:48.254Z,2.57
2022-10-14T20:51:19.605Z,2.47
2022-10-14T20:53:47.506Z,2.43
2022-10-14T20:56:15.940Z,2.57
2022-10-14T20:58:44.023Z,2.77
2022-10-14T21:01:14.349Z,2.70
2022-10-14T21:03:43.682Z,2.50
2022-10-14T21:06:13.323Z,2.67
2022-10-14T21:08:42.651Z,2.90
2022-10-14T21:11:15.357Z,2.83
2022-10-14T21:13:45.353Z,2.67
2022-10-14T21:16:19.986Z,2.50
2022-10-14T21:18:49.155Z,2.70
2022-10-14T21:21:19.829Z,2.80
2022-10-14T21:23:49.104Z,2.50
2022-10-14T21:26:17.237Z,2.13
2022-10-14T21:28:45.510Z,2.63
2022-10-14T21:31:18.696Z,2.30
2022-10-14T21:33:47.981Z,2.20
2022-10-14T21:36:17.246Z,2.10
2022-10-14T21:38:45.489Z,2.53
2022-10-14T21:41:14.964Z,2.30
2022-10-14T21:43:42.834Z,1.93
2022-10-14T21:46:12.885Z,2.23
2022-10-14T21:48:41.775Z,2.13
2022-10-14T21:51:11.345Z,2.10
2022-10-14T21:53:40.116Z,1.90
2022-10-14T21:56:08.659Z,2.10
2022-10-14T21:58:38.337Z,1.97
2022-10-14T22:01:09.150Z,2.20
2022-10-14T22:03:38.172Z,2.10
2022-10-14T22:06:08.255Z,2.37
2022-10-14T22:08:37.635Z,1.97
2022-10-14T22:11:06.913Z,1.77
2022-10-14T22:13:36.724Z,1.87
2022-10-14T22:16:04.731Z,2.20
2022-10-14T22:18:32.586Z,2.27
2022-10-14T22:21:04.067Z,2.50
2022-10-14T22:23:32.371Z,1.90
2022-10-14T22:26:01.553Z,1.80
2022-10-14T22:28:30.688Z,1.70
2022-10-14T22:31:05.010Z,1.37
2022-10-14T22:33:34.322Z,1.10
2022-10-14T22:36:10.048Z,1.20
2022-10-14T22:38:38.920Z,1.00
2022-10-14T22:41:07.869Z,0.87
2022-10-14T22:43:36.817Z,0.67
2022-10-14T22:46:08.421Z,0.80
2022-10-14T22:48:36.804Z,1.00
2022-10-14T22:51:06.305Z,1.10
2022-10-14T22:53:35.037Z,0.63
2022-10-14T22:56:03.743Z,0.73
2022-10-14T22:58:31.695Z,0.87
2022-10-14T23:01:08.494Z,0.80
2022-10-14T23:03:36.554Z,0.70
2022-10-14T23:06:06.279Z,0.67
2022-10-14T23:08:35.593Z,1.00
2022-10-14T23:11:04.817Z,0.70
2022-10-14T23:13:33.337Z,0.83
2022-10-14T23:16:03.016Z,0.90
2022-10-14T23:18:35.908Z,1.00
2022-10-14T23:21:09.565Z,1.00
2022-10-14T23:23:37.503Z,0.83
2022-10-14T23:26:05.797Z,0.90
2022-10-14T23:28:33.784Z,0.80
2022-10-14T23:31:01.960Z,0.80
2022-10-14T23:33:29.851Z,1.00
2022-10-14T23:36:04.119Z,0.80
2022-10-14T23:38:32.227Z,1.00
2022-10-14T23:41:02.607Z,1.30
2022-10-14T23:43:30.971Z,0.90
2022-10-14T23:45:59.543Z,1.10
2022-10-14T23:48:28.104Z,1.03
2022-10-14T23:50:55.961Z,0.90
2022-10-14T23:53:26.765Z,1.07
2022-10-14T23:55:55.456Z,1.20
2022-10-14T23:58:24.259Z,1.30
